Time;durP1;ratioP1;P1;durP2;ratioP2;P2;SDS_P1;SDS_P2;PMS_P1;PMS_P2;Temp;Humidity;BMP_temperature;BMP_pressure;BME280_temperature;BME280_humidity;BME280_pressure;Samples;Min_cycle;Max_cycle;Signal;HPM_P1;HPM_P2
2022/05/24 00:01:39;;;;;;;21.92;14.90;;;;;;;;;;5042116;28;20228;-65
2022/05/24 00:04:05;;;;;;;19.52;14.55;;;;;;;;;;5046993;28;20135;-65
2022/05/24 00:06:32;;;;;;;19.00;14.90;;;;;;;;;;5054017;28;20147;-66
2022/05/24 00:08:59;;;;;;;19.95;15.38;;;;;;;;;;5063085;28;20056;-65
2022/05/24 00:11:31;;;;;;;21.02;16.73;;;;;;;;;;5054475;28;20081;-65
2022/05/24 00:13:57;;;;;;;21.00;15.57;;;;;;;;;;5056973;28;20044;-66
2022/05/24 00:16:23;;;;;;;21.30;17.10;;;;;;;;;;5050172;28;20048;-66
2022/05/24 00:18:50;;;;;;;20.27;16.08;;;;;;;;;;5041842;28;20180;-65
2022/05/24 00:21:16;;;;;;;20.85;16.73;;;;;;;;;;5060796;28;20044;-65
2022/05/24 00:23:42;;;;;;;24.10;17.27;;;;;;;;;;5041559;28;20132;-65
2022/05/24 00:26:14;;;;;;;21.83;17.10;;;;;;;;;;5041184;28;20052;-65
2022/05/24 00:28:40;;;;;;;25.90;16.80;;;;;;;;;;5035928;28;20135;-65
2022/05/24 00:31:07;;;;;;;25.80;18.88;;;;;;;;;;5055338;28;20048;-65
2022/05/24 00:33:34;;;;;;;25.40;19.13;;;;;;;;;;5054648;28;21165;-65
2022/05/24 00:36:01;;;;;;;24.63;20.23;;;;;;;;;;5048515;28;20049;-65
2022/05/24 00:38:36;;;;;;;26.77;19.20;;;;;;;;;;5059880;28;20045;-65
2022/05/24 00:41:25;;;;;;;30.90;20.02;;;;;;;;;;5039900;28;20136;-66
2022/05/24 00:43:55;;;;;;;28.40;22.42;;;;;;;;;;5052938;28;20440;-66
2022/05/24 00:46:23;;;;;;;30.55;23.95;;;;;;;;;;5052360;28;20045;-66
2022/05/24 00:49:05;;;;;;;30.92;24.40;;;;;;;;;;5041966;28;20049;-66
2022/05/24 00:51:36;;;;;;;31.73;23.20;;;;;;;;;;5033655;28;20132;-65
2022/05/24 00:54:03;;;;;;;32.90;22.52;;;;;;;;;;5051763;28;20051;-66
2022/05/24 00:56:44;;;;;;;32.92;23.83;;;;;;;;;;5049422;28;20417;-66
2022/05/24 00:59:15;;;;;;;33.72;24.98;;;;;;;;;;5055597;28;20052;-66
2022/05/24 01:01:43;;;;;;;32.65;24.63;;;;;;;;;;5054624;28;20044;-66
2022/05/24 01:04:11;;;;;;;37.53;26.60;;;;;;;;;;5059852;28;20144;-66
2022/05/24 01:06:37;;;;;;;37.67;25.35;;;;;;;;;;5059794;28;20044;-66
2022/05/24 01:09:06;;;;;;;33.35;24.10;;;;;;;;;;5066389;28;20048;-66
2022/05/24 01:11:36;;;;;;;31.65;23.27;;;;;;;;;;5053188;28;20472;-66
2022/05/24 01:14:03;;;;;;;37.38;23.90;;;;;;;;;;5051738;28;20072;-66
2022/05/24 01:16:29;;;;;;;35.47;24.52;;;;;;;;;;5059426;28;20142;-66
2022/05/24 01:18:56;;;;;;;33.08;23.23;;;;;;;;;;5054328;28;20656;-66
2022/05/24 01:21:23;;;;;;;33.75;24.48;;;;;;;;;;5071160;28;20049;-66
2022/05/24 01:24:08;;;;;;;31.65;23.85;;;;;;;;;;5051703;28;20052;-66
2022/05/24 01:26:45;;;;;;;38.35;27.13;;;;;;;;;;5033452;28;20052;-66
2022/05/24 01:29:12;;;;;;;36.72;25.45;;;;;;;;;;5060199;28;20143;-66
2022/05/24 01:37:09;;;;;;;38.30;27.08;;;;;;;;;;5032937;28;20053;-66
2022/05/24 01:39:36;;;;;;;37.88;28.13;;;;;;;;;;5038881;28;20807;-65
2022/05/24 01:42:03;;;;;;;39.75;28.55;;;;;;;;;;5051197;28;20129;-66
2022/05/24 01:44:38;;;;;;;39.47;25.42;;;;;;;;;;5058830;28;20572;-66
2022/05/24 01:47:04;;;;;;;40.60;25.70;;;;;;;;;;5057515;28;20055;-67
2022/05/24 01:49:32;;;;;;;39.25;25.58;;;;;;;;;;5056352;28;20052;-66
2022/05/24 01:52:22;;;;;;;36.20;25.30;;;;;;;;;;5056007;28;20076;-66
2022/05/24 01:54:52;;;;;;;34.13;22.88;;;;;;;;;;5039333;28;20094;-66
2022/05/24 01:57:44;;;;;;;35.45;23.90;;;;;;;;;;5062795;28;20637;-65
2022/05/24 02:00:12;;;;;;;35.08;23.65;;;;;;;;;;5030850;28;20136;-65
2022/05/24 02:02:38;;;;;;;38.10;24.88;;;;;;;;;;5062801;28;20157;-66
2022/05/24 02:05:05;;;;;;;36.47;23.75;;;;;;;;;;5057090;28;20052;-67
2022/05/24 02:07:33;;;;;;;32.70;21.60;;;;;;;;;;5055040;28;20056;-67
2022/05/24 02:10:00;;;;;;;34.27;22.50;;;;;;;;;;5057203;28;20500;-65
2022/05/24 02:12:29;;;;;;;31.88;22.50;;;;;;;;;;5062470;28;20052;-65
2022/05/24 02:15:01;;;;;;;34.15;21.67;;;;;;;;;;5062380;28;20049;-65
2022/05/24 02:17:30;;;;;;;31.55;21.55;;;;;;;;;;5056623;28;20055;-65
2022/05/24 02:19:58;;;;;;;31.35;19.50;;;;;;;;;;5027829;28;20496;-65
2022/05/24 02:22:26;;;;;;;26.73;18.35;;;;;;;;;;5049104;28;20041;-65
2022/05/24 02:24:54;;;;;;;25.23;16.77;;;;;;;;;;5062718;28;20151;-66
2022/05/24 02:27:20;;;;;;;25.33;14.57;;;;;;;;;;5038324;28;20059;-66
2022/05/24 02:29:47;;;;;;;18.70;12.98;;;;;;;;;;5061567;28;20166;-65
2022/05/24 02:32:13;;;;;;;22.60;12.20;;;;;;;;;;5063454;28;20048;-65
2022/05/24 02:34:39;;;;;;;18.15;11.32;;;;;;;;;;5049082;28;20166;-66
2022/05/24 02:37:06;;;;;;;16.60;10.50;;;;;;;;;;5037930;28;20855;-65
2022/05/24 02:41:28;;;;;;;17.48;9.93;;;;;;;;;;5039071;28;20139;-65
2022/05/24 02:42:19;;;;;;;19.95;9.23;;;;;;;;;;5062418;28;20044;-66
2022/05/24 02:44:45;;;;;;;16.83;8.70;;;;;;;;;;5056141;28;20532;-65
2022/05/24 02:47:13;;;;;;;13.75;8.27;;;;;;;;;;5060159;28;20044;-65
2022/05/24 02:49:39;;;;;;;15.13;8.30;;;;;;;;;;5045996;28;20044;-66
2022/05/24 02:52:05;;;;;;;14.88;7.82;;;;;;;;;;5054943;28;20139;-66
2022/05/24 02:54:32;;;;;;;19.42;7.85;;;;;;;;;;5062196;28;20053;-65
2022/05/24 02:57:01;;;;;;;11.23;7.38;;;;;;;;;;5056617;28;20067;-66
2022/05/24 02:59:27;;;;;;;10.45;6.85;;;;;;;;;;5062004;28;20087;-66
2022/05/24 03:01:54;;;;;;;13.82;7.60;;;;;;;;;;5043594;28;20056;-66
2022/05/24 03:04:20;;;;;;;16.30;6.68;;;;;;;;;;5057325;28;20044;-66
2022/05/24 03:09:35;;;;;;;14.40;6.60;;;;;;;;;;5047551;28;20131;-66
2022/05/24 03:14:49;;;;;;;10.50;6.03;;;;;;;;;;5055761;28;20137;-66
2022/05/24 03:17:16;;;;;;;9.52;4.85;;;;;;;;;;5053759;28;20067;-66
2022/05/24 03:19:43;;;;;;;9.60;5.30;;;;;;;;;;5054338;28;20082;-66
2022/05/24 03:22:09;;;;;;;8.63;5.43;;;;;;;;;;5060966;28;20098;-66
2022/05/24 03:24:36;;;;;;;10.48;4.82;;;;;;;;;;5056086;28;20412;-66
2022/05/24 03:27:07;;;;;;;16.73;5.78;;;;;;;;;;5062490;28;20144;-66
2022/05/24 03:29:34;;;;;;;9.80;5.18;;;;;;;;;;5056715;28;20129;-65
2022/05/24 03:32:00;;;;;;;13.77;5.63;;;;;;;;;;5051566;28;20198;-66
2022/05/24 03:34:27;;;;;;;16.15;5.78;;;;;;;;;;5072920;28;20128;-65
2022/05/24 03:36:53;;;;;;;15.65;5.63;;;;;;;;;;5047667;28;20800;-67
2022/05/24 03:39:20;;;;;;;14.02;5.70;;;;;;;;;;5049445;28;20059;-66
2022/05/24 03:41:46;;;;;;;12.32;5.28;;;;;;;;;;5053258;28;20049;-66
2022/05/24 03:44:12;;;;;;;13.30;5.40;;;;;;;;;;5056513;28;20086;-66
2022/05/24 03:46:39;;;;;;;8.88;5.47;;;;;;;;;;5056394;28;20139;-66
2022/05/24 03:49:06;;;;;;;13.18;5.43;;;;;;;;;;5057574;28;20087;-66
2022/05/24 03:51:32;;;;;;;11.57;5.03;;;;;;;;;;5060489;28;20048;-66
2022/05/24 03:53:58;;;;;;;12.07;5.00;;;;;;;;;;5055401;28;20048;-66
2022/05/24 03:56:25;;;;;;;13.90;5.65;;;;;;;;;;5060169;28;20047;-66
2022/05/24 03:58:51;;;;;;;13.50;5.13;;;;;;;;;;5050389;28;20045;-65
2022/05/24 04:01:18;;;;;;;8.90;5.15;;;;;;;;;;5055381;28;20654;-65
2022/05/24 04:03:44;;;;;;;11.52;5.15;;;;;;;;;;5060374;28;20135;-66
2022/05/24 04:06:11;;;;;;;13.43;5.07;;;;;;;;;;5067039;28;20088;-66
2022/05/24 04:08:37;;;;;;;10.00;5.07;;;;;;;;;;5060274;28;20560;-66
2022/05/24 04:11:08;;;;;;;12.38;5.00;;;;;;;;;;5050651;28;20040;-66
2022/05/24 04:13:36;;;;;;;11.75;5.40;;;;;;;;;;5055533;28;20512;-65
2022/05/24 04:16:03;;;;;;;11.55;5.28;;;;;;;;;;5067803;28;20051;-66
2022/05/24 04:18:29;;;;;;;13.82;5.70;;;;;;;;;;5058793;28;20056;-65
2022/05/24 04:20:56;;;;;;;14.38;5.68;;;;;;;;;;5073068;28;20831;-66
2022/05/24 04:23:23;;;;;;;15.23;6.50;;;;;;;;;;5054190;28;20044;-65
2022/05/24 04:25:50;;;;;;;12.50;5.95;;;;;;;;;;5056306;28;20171;-66
2022/05/24 04:28:20;;;;;;;13.57;5.68;;;;;;;;;;5050204;28;20415;-66
2022/05/24 04:30:47;;;;;;;10.13;5.78;;;;;;;;;;5060746;28;20093;-66
2022/05/24 04:33:14;;;;;;;11.65;6.13;;;;;;;;;;5053269;28;20062;-65
2022/05/24 04:35:41;;;;;;;11.20;6.15;;;;;;;;;;5051199;28;20111;-65
2022/05/24 04:38:07;;;;;;;11.90;5.88;;;;;;;;;;5061020;28;20048;-65
2022/05/24 04:43:19;;;;;;;13.35;5.93;;;;;;;;;;5063875;28;20135;-65
2022/05/24 04:45:45;;;;;;;13.40;6.00;;;;;;;;;;5053096;28;20758;-66
2022/05/24 04:48:12;;;;;;;15.20;7.03;;;;;;;;;;5060350;28;20052;-65
2022/05/24 04:50:38;;;;;;;12.00;6.95;;;;;;;;;;5053922;28;20143;-65
2022/05/24 04:53:06;;;;;;;16.33;7.13;;;;;;;;;;5061542;28;20052;-65
2022/05/24 04:55:32;;;;;;;11.27;6.45;;;;;;;;;;5060166;28;20504;-65
2022/05/24 04:57:59;;;;;;;13.32;6.53;;;;;;;;;;5059479;28;20053;-65
2022/05/24 05:00:25;;;;;;;13.95;6.85;;;;;;;;;;5059220;28;20109;-65
2022/05/24 05:02:52;;;;;;;12.32;6.80;;;;;;;;;;5058984;28;20052;-65
2022/05/24 05:05:19;;;;;;;14.93;7.68;;;;;;;;;;5059763;28;20048;-65
2022/05/24 05:07:50;;;;;;;16.63;6.93;;;;;;;;;;5049389;28;20086;-64
2022/05/24 05:10:17;;;;;;;16.00;7.78;;;;;;;;;;5055771;28;20136;-65
2022/05/24 05:12:45;;;;;;;14.35;8.30;;;;;;;;;;5059694;28;20868;-65
2022/05/24 05:15:13;;;;;;;13.65;7.60;;;;;;;;;;5057134;28;20055;-65
2022/05/24 05:17:39;;;;;;;15.35;8.13;;;;;;;;;;5064910;28;20232;-65
2022/05/24 05:20:06;;;;;;;13.38;7.60;;;;;;;;;;5054016;28;20131;-65
2022/05/24 05:22:32;;;;;;;17.90;8.43;;;;;;;;;;5052887;28;20128;-65
2022/05/24 05:24:59;;;;;;;20.05;7.88;;;;;;;;;;5056764;28;20063;-65
2022/05/24 05:27:25;;;;;;;12.60;8.05;;;;;;;;;;5075132;28;20158;-65
2022/05/24 05:32:36;;;;;;;14.27;9.30;;;;;;;;;;5061975;28;20087;-66
2022/05/24 05:35:03;;;;;;;15.75;8.90;;;;;;;;;;5058292;28;20049;-66
2022/05/24 05:37:30;;;;;;;18.17;8.68;;;;;;;;;;5033028;28;20049;-66
2022/05/24 05:39:57;;;;;;;16.30;9.52;;;;;;;;;;5042593;28;20055;-66
2022/05/24 05:42:24;;;;;;;14.10;9.00;;;;;;;;;;5038008;28;20053;-66
2022/05/24 05:44:51;;;;;;;12.82;8.77;;;;;;;;;;5059726;28;20057;-66
2022/05/24 05:47:18;;;;;;;17.75;9.00;;;;;;;;;;5065258;28;20080;-66
2022/05/24 05:49:45;;;;;;;17.48;9.07;;;;;;;;;;5056578;28;20046;-65
2022/05/24 05:52:11;;;;;;;16.00;8.85;;;;;;;;;;5061984;28;20052;-66
2022/05/24 05:54:38;;;;;;;15.70;9.43;;;;;;;;;;5055928;28;20059;-66
2022/05/24 05:57:07;;;;;;;13.13;9.27;;;;;;;;;;5062952;28;20048;-65
2022/05/24 05:59:34;;;;;;;13.32;8.80;;;;;;;;;;5055416;28;20049;-65
2022/05/24 06:02:01;;;;;;;14.07;9.98;;;;;;;;;;5059916;28;20056;-67
2022/05/24 06:04:27;;;;;;;15.55;9.52;;;;;;;;;;5057775;28;20040;-66
2022/05/24 06:06:53;;;;;;;18.38;9.70;;;;;;;;;;5063376;28;20084;-66
2022/05/24 06:09:20;;;;;;;15.85;10.10;;;;;;;;;;5063836;28;20056;-65
2022/05/24 06:11:46;;;;;;;18.23;10.43;;;;;;;;;;5056169;28;20187;-65
2022/05/24 06:14:13;;;;;;;16.98;10.32;;;;;;;;;;5065547;28;20052;-65
2022/05/24 06:16:39;;;;;;;19.58;9.80;;;;;;;;;;5052433;28;20048;-65
2022/05/24 06:19:06;;;;;;;18.67;9.35;;;;;;;;;;5057337;28;20063;-65
2022/05/24 06:21:35;;;;;;;15.00;9.20;;;;;;;;;;5056572;28;20075;-65
2022/05/24 06:24:03;;;;;;;13.80;9.40;;;;;;;;;;5068216;28;20158;-65
2022/05/24 06:26:30;;;;;;;17.00;9.65;;;;;;;;;;5068910;28;20163;-66
2022/05/24 06:29:00;;;;;;;13.98;8.95;;;;;;;;;;5056869;28;20064;-67
2022/05/24 06:31:26;;;;;;;13.95;9.15;;;;;;;;;;5058111;28;20047;-66
2022/05/24 06:33:53;;;;;;;15.95;8.93;;;;;;;;;;5063315;28;20059;-66
2022/05/24 06:36:19;;;;;;;16.05;9.02;;;;;;;;;;5055113;28;20052;-66
2022/05/24 06:38:46;;;;;;;13.82;8.32;;;;;;;;;;5055790;28;20735;-66
2022/05/24 06:41:12;;;;;;;12.27;7.57;;;;;;;;;;5058865;28;20054;-66
2022/05/24 06:43:38;;;;;;;15.32;7.47;;;;;;;;;;5040094;28;20058;-65
2022/05/24 06:46:07;;;;;;;17.25;7.80;;;;;;;;;;5049964;28;20048;-71
2022/05/24 06:48:38;;;;;;;11.75;7.75;;;;;;;;;;5062952;28;20147;-65
2022/05/24 06:51:10;;;;;;;14.05;7.53;;;;;;;;;;5057114;28;20078;-64
2022/05/24 06:53:38;;;;;;;13.68;7.53;;;;;;;;;;5062269;28;20086;-65
2022/05/24 06:56:05;;;;;;;10.77;8.57;;;;;;;;;;5056081;28;20048;-65
2022/05/24 06:58:31;;;;;;;14.18;9.60;;;;;;;;;;5060244;28;20048;-66
2022/05/24 07:03:44;;;;;;;14.15;9.43;;;;;;;;;;5058498;28;20052;-65
2022/05/24 07:06:12;;;;;;;;;;;;;;;;;;5063208;28;20064;-66
2022/05/24 07:08:39;;;;;;;15.52;9.68;;;;;;;;;;5052066;28;20039;-66
2022/05/24 07:11:05;;;;;;;16.08;9.38;;;;;;;;;;5057568;28;20052;-66
2022/05/24 07:13:33;;;;;;;11.93;9.38;;;;;;;;;;5055797;28;20048;-66
2022/05/24 07:15:59;;;;;;;16.02;8.77;;;;;;;;;;5062179;28;20048;-66
2022/05/24 07:18:26;;;;;;;15.18;9.68;;;;;;;;;;5061310;28;20076;-66
2022/05/24 07:20:53;;;;;;;14.63;9.75;;;;;;;;;;5058164;28;20066;-66
2022/05/24 07:23:21;;;;;;;13.85;9.93;;;;;;;;;;5056996;28;20049;-66
2022/05/24 07:25:47;;;;;;;14.75;9.20;;;;;;;;;;5051689;28;20090;-66
2022/05/24 07:28:20;;;;;;;13.75;9.80;;;;;;;;;;5062228;28;20136;-66
2022/05/24 07:30:47;;;;;;;13.85;9.60;;;;;;;;;;5055486;28;20075;-66
2022/05/24 07:33:15;;;;;;;14.00;9.73;;;;;;;;;;5062238;28;20873;-66
2022/05/24 07:35:43;;;;;;;13.60;9.32;;;;;;;;;;5045427;28;20172;-67
2022/05/24 07:38:10;;;;;;;14.27;9.50;;;;;;;;;;5035573;28;20080;-66
2022/05/24 07:46:10;;;;;;;14.23;8.20;;;;;;;;;;5045920;28;20131;-66
2022/05/24 07:48:36;;;;;;;10.50;6.35;;;;;;;;;;5054845;28;20110;-64
2022/05/24 07:51:03;;;;;;;8.50;6.70;;;;;;;;;;5057563;28;20048;-65
2022/05/24 07:53:30;;;;;;;11.60;6.80;;;;;;;;;;5050370;28;20044;-66
2022/05/24 07:55:57;;;;;;;7.80;6.18;;;;;;;;;;5061920;28;20143;-65
2022/05/24 07:58:23;;;;;;;9.18;5.88;;;;;;;;;;5061466;28;20054;-66
2022/05/24 08:00:50;;;;;;;10.75;5.72;;;;;;;;;;5057031;28;20515;-66
2022/05/24 08:03:17;;;;;;;9.88;5.82;;;;;;;;;;5071763;28;20052;-66
2022/05/24 08:05:43;;;;;;;11.00;5.47;;;;;;;;;;5048581;28;20047;-66
2022/05/24 08:08:09;;;;;;;8.35;5.47;;;;;;;;;;5061980;28;20048;-66
2022/05/24 08:10:38;;;;;;;9.85;5.70;;;;;;;;;;5054080;28;20050;-65
2022/05/24 08:13:06;;;;;;;6.28;5.70;;;;;;;;;;5062307;28;20046;-66
2022/05/24 08:15:33;;;;;;;10.52;6.10;;;;;;;;;;5073117;28;20048;-66
2022/05/24 08:17:59;;;;;;;7.93;6.10;;;;;;;;;;5050977;28;20127;-66
2022/05/24 08:20:27;;;;;;;5.55;4.93;;;;;;;;;;5056069;28;20895;-66
2022/05/24 08:22:53;;;;;;;8.48;5.78;;;;;;;;;;5055021;28;20052;-66
2022/05/24 08:25:19;;;;;;;8.57;5.40;;;;;;;;;;5061029;28;20132;-66
2022/05/24 08:27:46;;;;;;;10.70;6.20;;;;;;;;;;5054885;28;20486;-66
2022/05/24 08:30:13;;;;;;;7.90;5.38;;;;;;;;;;5061101;28;20530;-66
2022/05/24 08:32:40;;;;;;;7.87;5.13;;;;;;;;;;5054659;28;20540;-66
2022/05/24 08:35:08;;;;;;;6.97;3.80;;;;;;;;;;5045406;28;20072;-66
2022/05/24 08:37:37;;;;;;;7.57;3.20;;;;;;;;;;5061057;28;20051;-66
2022/05/24 08:40:04;;;;;;;6.65;3.53;;;;;;;;;;5053696;28;20587;-66
2022/05/24 08:42:30;;;;;;;7.18;3.83;;;;;;;;;;5073266;28;20090;-65
2022/05/24 08:50:32;;;;;;;7.53;4.03;;;;;;;;;;5057115;28;20068;-66
2022/05/24 08:52:59;;;;;;;;;;;;;;;;;;5059882;28;20159;-66
2022/05/24 08:55:27;;;;;;;5.40;3.70;;;;;;;;;;5061104;28;20019;-66
2022/05/24 08:57:54;;;;;;;5.80;3.80;;;;;;;;;;5067375;28;20428;-65
2022/05/24 09:00:23;;;;;;;5.95;3.25;;;;;;;;;;5056830;28;20106;-65
2022/05/24 09:02:50;;;;;;;5.70;3.70;;;;;;;;;;5049663;28;20072;-66
2022/05/24 09:05:19;;;;;;;7.05;3.92;;;;;;;;;;5060596;28;20083;-67
2022/05/24 09:07:58;;;;;;;10.15;5.60;;;;;;;;;;5054694;28;20614;-64
2022/05/24 09:10:28;;;;;;;7.28;4.13;;;;;;;;;;5059598;28;20141;-66
2022/05/24 09:12:57;;;;;;;8.15;4.85;;;;;;;;;;5059676;28;20052;-65
2022/05/24 09:15:35;;;;;;;7.47;4.13;;;;;;;;;;5037781;28;20082;-67
2022/05/24 09:18:07;;;;;;;5.60;3.25;;;;;;;;;;5060200;28;20390;-65
2022/05/24 09:20:35;;;;;;;6.30;2.72;;;;;;;;;;5054457;28;20050;-66
2022/05/24 09:23:06;;;;;;;6.32;2.92;;;;;;;;;;5060853;28;20562;-66
2022/05/24 09:25:51;;;;;;;6.68;3.85;;;;;;;;;;5054225;28;20497;-66
2022/05/24 09:28:17;;;;;;;6.57;3.92;;;;;;;;;;5066853;28;20037;-66
2022/05/24 09:30:45;;;;;;;5.18;3.88;;;;;;;;;;5050535;28;20451;-66
2022/05/24 09:33:29;;;;;;;8.60;5.10;;;;;;;;;;5059558;28;20135;-66
2022/05/24 09:35:57;;;;;;;6.20;4.50;;;;;;;;;;5054914;28;20143;-66
2022/05/24 09:38:27;;;;;;;8.13;4.45;;;;;;;;;;5054672;28;20049;-65
2022/05/24 09:40:59;;;;;;;7.25;3.97;;;;;;;;;;5065653;28;20048;-65
2022/05/24 09:43:27;;;;;;;7.88;3.65;;;;;;;;;;5050260;28;20416;-65
2022/05/24 09:45:59;;;;;;;6.38;4.15;;;;;;;;;;5059568;28;20106;-66
2022/05/24 09:48:27;;;;;;;4.38;3.85;;;;;;;;;;5054616;28;21358;-66
2022/05/24 09:50:54;;;;;;;5.65;3.85;;;;;;;;;;5073050;28;20067;-67
2022/05/24 09:53:22;;;;;;;5.45;3.95;;;;;;;;;;5066256;28;20155;-66
2022/05/24 09:55:51;;;;;;;5.07;3.50;;;;;;;;;;5053571;28;20052;-66
2022/05/24 09:58:27;;;;;;;4.70;3.53;;;;;;;;;;5055853;28;20088;-66
2022/05/24 10:01:07;;;;;;;6.45;3.80;;;;;;;;;;5054963;28;20059;-66
2022/05/24 10:03:34;;;;;;;4.25;2.90;;;;;;;;;;5059644;28;20088;-67
2022/05/24 10:06:06;;;;;;;6.35;2.95;;;;;;;;;;5052710;28;20057;-67
2022/05/24 10:08:37;;;;;;;3.20;2.03;;;;;;;;;;5057756;28;20055;-66
2022/05/24 10:11:04;;;;;;;3.08;1.30;;;;;;;;;;5063928;28;20563;-67
2022/05/24 10:13:38;;;;;;;4.20;1.30;;;;;;;;;;5079693;28;20056;-66
2022/05/24 10:16:11;;;;;;;2.35;1.00;;;;;;;;;;5081648;28;20040;-66
2022/05/24 10:18:56;;;;;;;3.95;1.20;;;;;;;;;;5081945;28;20062;-66
2022/05/24 10:21:29;;;;;;;2.60;1.40;;;;;;;;;;5084377;28;20079;-66
2022/05/24 10:24:18;;;;;;;2.63;1.73;;;;;;;;;;5072989;28;20155;-66
2022/05/24 10:27:03;;;;;;;4.32;1.80;;;;;;;;;;5034063;28;20798;-66
2022/05/24 10:29:38;;;;;;;4.68;1.90;;;;;;;;;;5077904;28;20048;-66
2022/05/24 10:38:32;;;;;;;3.83;2.20;;;;;;;;;;5037967;28;20441;-67
2022/05/24 10:40:59;;;;;;;5.03;2.20;;;;;;;;;;5012932;28;20639;-67
2022/05/24 10:43:31;;;;;;;3.70;2.17;;;;;;;;;;5043666;28;20045;-67
2022/05/24 10:46:01;;;;;;;4.38;2.03;;;;;;;;;;5056736;28;20056;-67
2022/05/24 10:48:34;;;;;;;4.28;1.98;;;;;;;;;;5062715;28;20463;-67
2022/05/24 10:51:06;;;;;;;3.42;1.77;;;;;;;;;;5053917;28;20052;-67
2022/05/24 10:53:44;;;;;;;1.95;1.40;;;;;;;;;;5039158;28;20052;-67
2022/05/24 10:56:20;;;;;;;5.93;0.88;;;;;;;;;;5058009;28;20468;-66
2022/05/24 10:58:47;;;;;;;0.75;0.60;;;;;;;;;;5062322;28;20050;-67
2022/05/24 11:01:27;;;;;;;3.85;1.13;;;;;;;;;;5063242;28;20221;-67
2022/05/24 11:03:56;;;;;;;1.27;0.50;;;;;;;;;;5040467;28;20080;-67
2022/05/24 11:07:00;;;;;;;1.08;0.55;;;;;;;;;;5047082;28;20091;-67
2022/05/24 11:09:28;;;;;;;0.90;0.60;;;;;;;;;;4993825;28;20057;-67
2022/05/24 11:11:54;;;;;;;1.35;0.70;;;;;;;;;;5058898;28;20147;-68
2022/05/24 11:14:36;;;;;;;1.95;1.05;;;;;;;;;;5057146;28;20139;-67
2022/05/24 11:17:03;;;;;;;1.90;1.10;;;;;;;;;;5062657;28;20138;-67
2022/05/24 11:19:36;;;;;;;2.03;0.95;;;;;;;;;;5051270;28;20051;-66
2022/05/24 11:22:39;;;;;;;1.75;1.10;;;;;;;;;;5058241;28;20052;-66
2022/05/24 11:25:08;;;;;;;4.20;1.60;;;;;;;;;;4993897;28;20758;-66
2022/05/24 11:27:35;;;;;;;2.75;1.15;;;;;;;;;;4998909;28;20404;-68
2022/05/24 11:30:13;;;;;;;6.10;1.52;;;;;;;;;;4984950;28;20065;-67
2022/05/24 11:32:47;;;;;;;1.60;1.10;;;;;;;;;;4995216;28;20486;-67
2022/05/24 11:35:19;;;;;;;2.53;1.00;;;;;;;;;;4995300;28;20081;-67
2022/05/24 11:37:55;;;;;;;1.60;1.08;;;;;;;;;;4992898;28;20128;-67
2022/05/24 11:40:24;;;;;;;2.60;1.52;;;;;;;;;;4991904;28;20589;-67
2022/05/24 11:42:50;;;;;;;5.68;1.50;;;;;;;;;;4987490;28;20060;-67
2022/05/24 11:45:26;;;;;;;4.95;1.45;;;;;;;;;;4998730;28;20042;-67
2022/05/24 11:47:57;;;;;;;7.18;1.52;;;;;;;;;;4988367;28;20484;-67
2022/05/24 11:50:37;;;;;;;4.70;1.00;;;;;;;;;;4997331;28;20056;-67
2022/05/24 11:53:08;;;;;;;4.47;1.10;;;;;;;;;;4993471;28;20136;-67
2022/05/24 11:55:41;;;;;;;5.75;1.20;;;;;;;;;;4987922;28;20049;-65
2022/05/24 11:58:20;;;;;;;5.22;1.30;;;;;;;;;;5003806;28;20136;-66
2022/05/24 12:01:01;;;;;;;6.13;1.00;;;;;;;;;;5050700;28;20671;-66
2022/05/24 12:09:12;;;;;;;3.75;0.70;;;;;;;;;;5062003;28;20147;-66
2022/05/24 12:11:39;;;;;;;1.85;0.50;;;;;;;;;;5052795;28;20055;-66
2022/05/24 12:14:14;;;;;;;1.90;0.50;;;;;;;;;;5055656;28;20086;-66
2022/05/24 12:16:45;;;;;;;3.33;0.50;;;;;;;;;;5055405;28;20129;-66
2022/05/24 12:19:40;;;;;;;1.75;0.60;;;;;;;;;;5061526;28;20614;-66
2022/05/24 12:22:08;;;;;;;2.10;0.80;;;;;;;;;;5047439;28;20199;-66
2022/05/24 12:24:37;;;;;;;2.03;0.90;;;;;;;;;;5053423;28;20048;-66
2022/05/24 12:27:09;;;;;;;2.33;1.00;;;;;;;;;;5029994;28;20085;-66
2022/05/24 12:29:39;;;;;;;2.50;0.98;;;;;;;;;;5039157;28;20745;-66
2022/05/24 12:32:06;;;;;;;3.20;1.00;;;;;;;;;;5059129;28;20056;-66
2022/05/24 12:34:32;;;;;;;3.97;1.40;;;;;;;;;;5054220;28;20511;-66
2022/05/24 12:37:00;;;;;;;4.60;1.30;;;;;;;;;;5041383;28;20045;-66
2022/05/24 12:39:35;;;;;;;3.15;1.38;;;;;;;;;;5033986;28;20060;-66
2022/05/24 12:42:07;;;;;;;4.88;1.80;;;;;;;;;;5056389;28;20094;-66
2022/05/24 12:44:48;;;;;;;2.55;1.10;;;;;;;;;;5052744;28;20269;-66
2022/05/24 12:47:18;;;;;;;3.58;1.13;;;;;;;;;;5060609;28;20056;-66
2022/05/24 12:49:48;;;;;;;1.35;0.60;;;;;;;;;;5060744;28;20052;-66
2022/05/24 12:52:14;;;;;;;3.97;0.70;;;;;;;;;;5052685;28;20048;-66
2022/05/24 12:54:45;;;;;;;1.15;0.50;;;;;;;;;;5054529;28;20617;-66
2022/05/24 12:57:13;;;;;;;2.38;0.60;;;;;;;;;;5054735;28;20048;-66
2022/05/24 12:59:42;;;;;;;3.65;0.88;;;;;;;;;;5060192;28;20051;-67
2022/05/24 13:02:31;;;;;;;2.37;0.80;;;;;;;;;;5055878;28;20162;-66
2022/05/24 13:05:00;;;;;;;2.20;0.85;;;;;;;;;;5061199;28;20051;-67
2022/05/24 13:07:38;;;;;;;2.40;0.90;;;;;;;;;;5050294;28;20052;-66
2022/05/24 13:10:13;;;;;;;2.60;0.88;;;;;;;;;;5056136;28;20053;-66
2022/05/24 13:12:41;;;;;;;2.00;0.90;;;;;;;;;;5043014;28;20896;-66
2022/05/24 13:15:10;;;;;;;2.33;0.82;;;;;;;;;;5054692;28;20125;-67
2022/05/24 13:17:41;;;;;;;2.78;1.17;;;;;;;;;;5061495;28;20094;-66
2022/05/24 13:20:07;;;;;;;4.88;1.02;;;;;;;;;;5053929;28;20529;-67
2022/05/24 13:22:51;;;;;;;4.28;1.15;;;;;;;;;;5052287;28;20600;-66
2022/05/24 13:25:17;;;;;;;1.58;0.90;;;;;;;;;;5054882;28;20044;-66
2022/05/24 13:27:49;;;;;;;3.42;1.08;;;;;;;;;;5060178;28;20509;-66
2022/05/24 13:35:49;;;;;;;3.33;1.30;;;;;;;;;;5046164;28;20051;-66
2022/05/24 13:38:21;;;;;;;2.35;1.17;;;;;;;;;;5056455;28;20121;-66
2022/05/24 13:40:53;;;;;;;4.18;1.48;;;;;;;;;;5058800;28;20044;-66
2022/05/24 13:43:32;;;;;;;3.60;1.30;;;;;;;;;;5054395;28;20048;-66
2022/05/24 13:46:14;;;;;;;5.85;1.30;;;;;;;;;;5047955;28;20211;-66
2022/05/24 13:48:50;;;;;;;3.00;1.10;;;;;;;;;;5053128;28;20048;-65
2022/05/24 13:51:18;;;;;;;3.50;1.20;;;;;;;;;;5062887;28;20154;-66
2022/05/24 13:53:46;;;;;;;3.05;1.20;;;;;;;;;;5066549;28;20048;-65
2022/05/24 13:56:12;;;;;;;;;;;;;;;;;;5064519;28;20580;-65
2022/05/24 13:58:41;;;;;;;2.05;1.15;;;;;;;;;;5054498;28;19930;-65
2022/05/24 14:01:09;;;;;;;1.25;0.90;;;;;;;;;;5071764;28;20044;-65
2022/05/24 14:03:36;;;;;;;;;;;;;;;;;;5063830;28;20135;-65
2022/05/24 14:06:07;;;;;;;2.55;0.90;;;;;;;;;;5056811;28;19931;-66
2022/05/24 14:08:47;;;;;;;1.02;0.80;;;;;;;;;;5063502;28;20384;-66
2022/05/24 14:11:15;;;;;;;2.05;1.00;;;;;;;;;;5070246;28;20162;-66
2022/05/24 14:13:43;;;;;;;1.58;1.20;;;;;;;;;;5057689;28;20067;-67
2022/05/24 14:16:10;;;;;;;3.38;1.67;;;;;;;;;;5062463;28;20511;-67
2022/05/24 14:18:37;;;;;;;2.92;2.00;;;;;;;;;;5071058;28;20812;-67
2022/05/24 14:21:03;;;;;;;3.17;1.65;;;;;;;;;;5063568;28;20723;-67
2022/05/24 14:23:31;;;;;;;2.00;1.55;;;;;;;;;;5069627;28;20136;-67
2022/05/24 14:25:57;;;;;;;3.05;1.27;;;;;;;;;;5059648;28;20048;-67
2022/05/24 14:28:23;;;;;;;2.65;1.60;;;;;;;;;;5051679;28;20504;-67
2022/05/24 14:30:50;;;;;;;4.03;1.85;;;;;;;;;;5070076;28;20425;-67
2022/05/24 14:33:18;;;;;;;2.15;1.25;;;;;;;;;;5057666;28;20156;-66
2022/05/24 14:35:45;;;;;;;2.08;1.55;;;;;;;;;;5056634;28;20135;-66
2022/05/24 14:38:11;;;;;;;2.38;1.35;;;;;;;;;;5063076;28;20080;-65
2022/05/24 14:40:40;;;;;;;2.35;1.70;;;;;;;;;;5049772;28;20151;-67
2022/05/24 14:43:08;;;;;;;2.20;1.50;;;;;;;;;;5057904;28;20041;-66
2022/05/24 14:45:34;;;;;;;2.70;1.63;;;;;;;;;;5044007;28;20135;-66
2022/05/24 14:48:01;;;;;;;2.60;1.50;;;;;;;;;;5062585;28;20139;-66
2022/05/24 14:50:28;;;;;;;5.18;1.70;;;;;;;;;;5057624;28;20501;-68
2022/05/24 14:52:55;;;;;;;3.22;1.60;;;;;;;;;;5045034;28;20088;-66
2022/05/24 14:55:22;;;;;;;3.78;1.58;;;;;;;;;;5055763;28;20055;-66
2022/05/24 14:57:49;;;;;;;5.03;1.88;;;;;;;;;;5070881;28;20051;-67
2022/05/24 15:00:19;;;;;;;4.82;2.28;;;;;;;;;;5045775;28;20460;-66
2022/05/24 15:02:46;;;;;;;4.50;1.60;;;;;;;;;;5056313;28;20758;-66
2022/05/24 15:05:12;;;;;;;2.05;1.60;;;;;;;;;;5062712;28;20132;-65
2022/05/24 15:15:55;;;;;;;4.80;2.08;;;;;;;;;;5062413;28;20116;-65
2022/05/24 15:18:21;;;;;;;4.00;1.90;;;;;;;;;;5072667;28;20120;-66
2022/05/24 15:20:48;;;;;;;2.92;1.30;;;;;;;;;;5058369;28;20040;-67
2022/05/24 15:23:25;;;;;;;2.42;0.93;;;;;;;;;;5056181;28;20154;-65
2022/05/24 15:26:05;;;;;;;2.80;1.00;;;;;;;;;;5053537;28;20057;-67
2022/05/24 15:28:32;;;;;;;2.15;0.80;;;;;;;;;;5060507;28;20131;-66
2022/05/24 15:30:59;;;;;;;0.93;0.70;;;;;;;;;;5056593;28;20054;-67
2022/05/24 15:33:26;;;;;;;3.17;0.80;;;;;;;;;;5062662;28;20476;-66
2022/05/24 15:35:52;;;;;;;0.90;0.80;;;;;;;;;;5055534;28;20084;-67
2022/05/24 15:38:20;;;;;;;1.23;0.93;;;;;;;;;;5061118;28;20787;-66
2022/05/24 15:40:46;;;;;;;1.73;1.38;;;;;;;;;;5059630;28;20044;-66
2022/05/24 15:43:13;;;;;;;3.10;1.10;;;;;;;;;;5060456;28;20131;-66
2022/05/24 15:45:40;;;;;;;3.45;1.13;;;;;;;;;;5061107;28;20048;-66